createdAt,value
2019-03-16T00:00:34.127Z,6.22
2019-03-16T00:03:01.164Z,6.19
2019-03-16T00:05:27.760Z,6.20
2019-03-16T00:07:54.257Z,6.24
2019-03-16T00:10:21.415Z,6.23
2019-03-16T00:12:48.046Z,6.21
2019-03-16T00:15:14.583Z,6.16
2019-03-16T00:17:41.400Z,6.17
2019-03-16T00:20:08.069Z,6.20
2019-03-16T00:22:34.728Z,6.27
2019-03-16T00:25:01.204Z,6.23
2019-03-16T00:27:27.769Z,6.17
2019-03-16T00:29:54.283Z,6.17
2019-03-16T00:32:20.837Z,6.15
2019-03-16T00:34:47.781Z,6.18
2019-03-16T00:37:14.323Z,6.18
2019-03-16T00:39:40.905Z,6.18
2019-03-16T00:42:07.504Z,6.14
2019-03-16T00:44:34.038Z,6.17
2019-03-16T00:47:01.684Z,6.17
2019-03-16T00:49:30.988Z,6.21
2019-03-16T00:51:57.650Z,6.16
2019-03-16T00:54:24.309Z,6.15
2019-03-16T00:56:53.675Z,6.20
2019-03-16T00:59:20.324Z,6.19
2019-03-16T01:01:46.879Z,6.21
2019-03-16T01:04:13.749Z,6.25
2019-03-16T01:06:40.315Z,6.26
2019-03-16T01:09:07.221Z,6.21
2019-03-16T01:11:33.837Z,6.24
2019-03-16T01:14:00.792Z,6.26
2019-03-16T01:16:27.706Z,6.26
2019-03-16T01:18:54.530Z,6.16
2019-03-16T01:21:22.170Z,6.19
2019-03-16T01:23:48.761Z,6.15
2019-03-16T01:26:15.283Z,6.11
2019-03-16T01:28:41.926Z,6.11
2019-03-16T01:31:08.550Z,6.10
2019-03-16T01:33:35.098Z,6.14
2019-03-16T01:36:02.122Z,6.17
2019-03-16T01:38:28.725Z,6.18
2019-03-16T01:40:55.646Z,6.21
2019-03-16T01:43:22.235Z,6.20
2019-03-16T01:45:49.034Z,6.33
2019-03-16T01:48:15.780Z,6.36
2019-03-16T01:50:44.067Z,6.36
2019-03-16T01:53:10.722Z,6.36
2019-03-16T01:55:37.253Z,6.38
2019-03-16T01:58:10.639Z,6.41
2019-03-16T02:00:37.263Z,6.41
2019-03-16T02:03:04.286Z,6.44
2019-03-16T02:05:30.826Z,6.41
2019-03-16T02:07:57.486Z,6.40
2019-03-16T02:10:24.223Z,6.42
2019-03-16T02:12:50.799Z,6.40
2019-03-16T02:15:17.325Z,6.46
2019-03-16T02:17:45.470Z,6.49
2019-03-16T02:20:12.359Z,6.44
2019-03-16T02:22:39.173Z,6.40
2019-03-16T02:25:05.934Z,6.43
2019-03-16T02:27:32.513Z,6.45
2019-03-16T02:29:59.697Z,6.41
2019-03-16T02:32:26.205Z,6.37
2019-03-16T02:34:52.840Z,6.37
2019-03-16T02:37:19.613Z,6.34
2019-03-16T02:39:46.306Z,6.35
2019-03-16T02:42:12.841Z,6.41
2019-03-16T02:44:39.724Z,6.39
2019-03-16T02:47:06.397Z,6.42
2019-03-16T02:49:32.967Z,6.38
2019-03-16T02:51:59.629Z,6.34
2019-03-16T02:54:26.161Z,6.34
2019-03-16T02:56:52.694Z,6.31
2019-03-16T02:59:19.206Z,6.30
2019-03-16T03:01:45.870Z,6.32
2019-03-16T03:04:23.573Z,6.35
2019-03-16T03:06:50.124Z,6.30
2019-03-16T03:09:16.649Z,6.30
2019-03-16T03:11:43.225Z,6.29
2019-03-16T03:14:09.759Z,6.26
2019-03-16T03:16:36.890Z,6.33
2019-03-16T03:19:03.513Z,6.30
2019-03-16T03:21:30.062Z,6.32
2019-03-16T03:23:56.628Z,6.28
2019-03-16T03:26:23.201Z,6.27
2019-03-16T03:28:49.801Z,6.27
2019-03-16T03:31:18.857Z,6.26
2019-03-16T03:34:00.171Z,6.23
2019-03-16T03:36:13.780Z,6.21
2019-03-16T03:38:40.351Z,6.25
2019-03-16T03:41:08.223Z,6.21
2019-03-16T03:43:35.032Z,6.19
2019-03-16T03:46:01.599Z,6.17
2019-03-16T03:48:28.154Z,6.15
2019-03-16T03:50:56.014Z,6.14
2019-03-16T03:53:22.652Z,6.16
2019-03-16T03:55:49.294Z,6.15
2019-03-16T03:58:16.290Z,6.16
2019-03-16T04:00:42.898Z,6.16
2019-03-16T04:03:09.538Z,6.16
2019-03-16T04:05:36.643Z,6.16
2019-03-16T04:08:03.614Z,6.17
2019-03-16T04:10:30.662Z,6.15
2019-03-16T04:12:57.240Z,6.10
2019-03-16T04:15:23.758Z,6.11
2019-03-16T04:17:51.747Z,6.11
2019-03-16T04:20:18.400Z,6.10
2019-03-16T04:22:45.079Z,6.06
2019-03-16T04:25:11.898Z,6.04
2019-03-16T04:27:38.940Z,6.03
2019-03-16T04:30:06.098Z,6.09
2019-03-16T04:32:32.785Z,6.02
2019-03-16T04:34:59.297Z,5.99
2019-03-16T04:37:26.190Z,6.02
2019-03-16T04:39:53.064Z,5.98
2019-03-16T04:42:19.941Z,5.92
2019-03-16T04:44:46.694Z,5.88
2019-03-16T04:47:13.338Z,5.92
2019-03-16T04:49:40.373Z,5.85
2019-03-16T04:52:06.934Z,5.81
2019-03-16T04:54:33.537Z,5.80
2019-03-16T04:57:00.806Z,5.76
2019-03-16T04:59:27.814Z,5.77
2019-03-16T05:01:54.308Z,5.72
2019-03-16T05:04:20.831Z,5.72
2019-03-16T05:06:47.500Z,5.72
2019-03-16T05:09:14.021Z,5.71
2019-03-16T05:11:40.892Z,5.70
2019-03-16T05:14:09.692Z,5.68
2019-03-16T05:16:36.236Z,5.71
2019-03-16T05:19:02.856Z,5.68
2019-03-16T05:21:29.549Z,5.67
2019-03-16T05:23:56.381Z,5.65
2019-03-16T05:26:25.298Z,5.63
2019-03-16T05:28:51.809Z,5.65
2019-03-16T05:31:18.834Z,5.61
2019-03-16T05:33:46.593Z,5.61
2019-03-16T05:36:13.424Z,5.62
2019-03-16T05:38:40.045Z,5.61
2019-03-16T05:41:06.805Z,5.61
2019-03-16T05:43:33.712Z,5.59
2019-03-16T05:46:00.350Z,5.55
2019-03-16T05:48:27.112Z,5.53
2019-03-16T05:50:53.768Z,5.50
2019-03-16T05:53:21.389Z,5.47
2019-03-16T05:55:48.309Z,5.45
2019-03-16T05:58:14.901Z,5.42
2019-03-16T06:00:41.892Z,5.41
2019-03-16T06:03:08.415Z,5.38
2019-03-16T06:05:35.240Z,5.41
2019-03-16T06:08:01.771Z,5.42
2019-03-16T06:10:31.673Z,5.41
2019-03-16T06:12:58.262Z,5.44
2019-03-16T06:15:24.915Z,5.46
2019-03-16T06:17:51.551Z,5.41
2019-03-16T06:20:18.162Z,5.41
2019-03-16T06:22:44.756Z,5.39
2019-03-16T06:25:11.542Z,5.40
2019-03-16T06:27:38.566Z,5.40
2019-03-16T06:30:05.354Z,5.41
2019-03-16T06:32:31.955Z,5.44
2019-03-16T06:34:58.902Z,5.45
2019-03-16T06:37:25.673Z,5.46
2019-03-16T06:39:53.102Z,5.47
2019-03-16T06:42:19.870Z,5.48
2019-03-16T06:44:47.214Z,5.49
2019-03-16T06:47:16.110Z,5.50
2019-03-16T06:49:52.510Z,5.55
2019-03-16T06:52:19.200Z,5.52
2019-03-16T06:54:45.764Z,5.51
2019-03-16T06:57:12.599Z,5.53
2019-03-16T06:59:39.189Z,5.53
2019-03-16T07:02:05.893Z,5.55
2019-03-16T07:04:32.805Z,5.55
2019-03-16T07:06:59.510Z,5.52
2019-03-16T07:09:26.070Z,5.53
2019-03-16T07:11:53.043Z,5.54
2019-03-16T07:14:19.686Z,5.58
2019-03-16T07:16:46.854Z,5.59
2019-03-16T07:19:46.773Z,5.60
2019-03-16T07:22:13.351Z,5.62
2019-03-16T07:24:39.976Z,5.63
2019-03-16T07:28:01.847Z,5.66
2019-03-16T07:30:28.837Z,5.67
2019-03-16T07:32:55.755Z,5.69
2019-03-16T07:35:22.287Z,5.72
2019-03-16T07:37:49.187Z,5.70
2019-03-16T07:40:17.862Z,5.70
2019-03-16T07:42:44.424Z,5.75
2019-03-16T07:45:11.230Z,5.77
2019-03-16T07:47:37.775Z,5.84
2019-03-16T07:50:05.069Z,5.89
2019-03-16T07:52:32.382Z,5.90
2019-03-16T07:54:59.432Z,5.94
2019-03-16T08:01:05.830Z,6.00
2019-03-16T08:04:33.733Z,6.03
2019-03-16T08:10:41.070Z,6.09
2019-03-16T08:13:07.639Z,6.14
2019-03-16T08:15:34.251Z,6.20
2019-03-16T08:18:00.956Z,6.18
2019-03-16T08:20:31.203Z,6.19
2019-03-16T08:22:56.615Z,6.18
2019-03-16T08:25:23.227Z,6.24
2019-03-16T08:31:30.601Z,6.30
2019-03-16T08:33:57.299Z,6.36
2019-03-16T08:36:23.879Z,6.45
2019-03-16T08:38:50.464Z,6.49
2019-03-16T08:41:17.402Z,6.54
2019-03-16T08:43:43.936Z,6.54
2019-03-16T08:46:11.434Z,6.56
2019-03-16T08:48:38.024Z,6.58
2019-03-16T08:54:46.113Z,6.67
2019-03-16T08:57:13.104Z,6.60
2019-03-16T08:59:39.677Z,6.58
2019-03-16T09:02:06.285Z,6.55
2019-03-16T09:04:33.169Z,6.54
2019-03-16T09:06:59.776Z,6.54
2019-03-16T09:09:26.383Z,6.50
2019-03-16T09:11:58.081Z,6.47
2019-03-16T09:14:23.820Z,6.42
2019-03-16T09:16:50.531Z,6.41
2019-03-16T09:19:17.498Z,6.36
2019-03-16T09:22:15.200Z,6.36
2019-03-16T09:24:41.908Z,6.34
2019-03-16T09:27:08.732Z,6.38
2019-03-16T09:29:35.447Z,6.42
2019-03-16T09:32:02.213Z,6.44
2019-03-16T09:34:29.049Z,6.44
2019-03-16T09:37:10.688Z,6.41
2019-03-16T09:39:37.614Z,6.42
2019-03-16T09:42:04.118Z,6.40
2019-03-16T09:44:30.684Z,6.42
2019-03-16T09:46:57.346Z,6.40
2019-03-16T09:49:24.015Z,6.43
2019-03-16T09:51:51.132Z,6.43
2019-03-16T09:54:18.633Z,6.54
2019-03-16T09:56:45.173Z,6.60
2019-03-16T09:59:12.053Z,6.64
2019-03-16T10:01:38.716Z,6.67
2019-03-16T10:04:05.571Z,6.75
2019-03-16T10:07:02.078Z,6.75
2019-03-16T10:09:28.593Z,6.79
2019-03-16T10:11:55.198Z,6.69
2019-03-16T10:14:21.775Z,6.68
2019-03-16T10:16:50.048Z,6.72
2019-03-16T10:19:16.653Z,6.77
2019-03-16T10:21:43.280Z,6.81
2019-03-16T10:27:50.231Z,6.95
2019-03-16T10:31:25.234Z,7.00
2019-03-16T10:37:31.553Z,7.21
2019-03-16T10:39:58.160Z,7.33
2019-03-16T10:42:24.842Z,7.42
2019-03-16T10:44:51.565Z,7.50
2019-03-16T10:47:18.134Z,7.64
2019-03-16T10:50:39.551Z,7.74
2019-03-16T10:56:46.756Z,7.98
2019-03-16T10:59:13.981Z,8.09
2019-03-16T11:05:20.763Z,8.27
2019-03-16T11:07:47.446Z,8.38
2019-03-16T11:10:14.280Z,8.50
2019-03-16T11:12:42.145Z,8.63
2019-03-16T11:15:08.818Z,8.76
2019-03-16T11:17:35.915Z,8.87
2019-03-16T11:20:04.941Z,9.03
2019-03-16T11:22:31.609Z,9.11
2019-03-16T11:24:58.287Z,9.25
2019-03-16T11:27:25.536Z,9.36
2019-03-16T11:29:52.116Z,9.51
2019-03-16T11:32:18.747Z,9.60
2019-03-16T11:34:45.524Z,9.71
2019-03-16T11:37:12.286Z,9.80
2019-03-16T11:43:18.893Z,10.00
2019-03-16T11:46:40.703Z,10.15
2019-03-16T11:49:10.632Z,10.27
2019-03-16T11:51:37.249Z,10.46
2019-03-16T11:54:04.028Z,10.47
2019-03-16T12:00:11.842Z,10.68
2019-03-16T12:06:19.920Z,11.07
2019-03-16T12:08:49.334Z,11.32
2019-03-16T12:14:56.193Z,11.37
2019-03-16T12:17:22.849Z,11.42
2019-03-16T12:23:29.418Z,11.33
2019-03-16T12:25:56.048Z,11.37
2019-03-16T12:32:02.402Z,11.20
2019-03-16T12:34:29.163Z,11.44
2019-03-16T12:36:55.830Z,11.54
2019-03-16T12:43:02.356Z,11.76
2019-03-16T12:45:29.040Z,11.81
2019-03-16T12:51:36.197Z,11.90
2019-03-16T12:54:03.016Z,11.83
2019-03-16T12:56:29.803Z,11.78
2019-03-16T12:58:56.363Z,11.70
2019-03-16T13:01:23.300Z,11.53
2019-03-16T13:03:50.493Z,11.44
2019-03-16T13:07:27.520Z,11.31
2019-03-16T13:09:57.642Z,11.24
2019-03-16T13:12:25.899Z,11.25
2019-03-16T13:14:52.677Z,11.25
2019-03-16T13:17:25.333Z,11.26
2019-03-16T13:23:32.658Z,11.36
2019-03-16T13:26:54.152Z,11.22
2019-03-16T13:33:01.587Z,11.25
2019-03-16T13:35:28.150Z,11.25
2019-03-16T13:38:49.728Z,11.37
2019-03-16T13:42:09.975Z,11.40
2019-03-16T13:45:32.843Z,11.33
2019-03-16T13:51:41.464Z,11.41
2019-03-16T13:57:48.069Z,11.13
2019-03-16T14:00:15.070Z,11.01
2019-03-16T14:06:22.645Z,11.00
2019-03-16T14:08:49.454Z,10.95
2019-03-16T14:12:27.538Z,10.93
2019-03-16T14:14:55.380Z,10.92
2019-03-16T14:17:27.439Z,10.85
2019-03-16T14:20:49.089Z,10.77
2019-03-16T14:26:56.774Z,10.66
2019-03-16T14:33:03.419Z,10.58
2019-03-16T14:35:30.205Z,10.58
2019-03-16T14:37:56.910Z,10.57
2019-03-16T14:41:19.502Z,10.54
2019-03-16T14:43:46.481Z,10.56
2019-03-16T14:46:13.204Z,10.56
2019-03-16T14:52:19.521Z,10.46
2019-03-16T14:55:40.875Z,10.37
2019-03-16T14:58:07.448Z,10.40
2019-03-16T15:00:38.677Z,10.42
2019-03-16T15:03:03.168Z,10.42
2019-03-16T15:09:10.373Z,10.37
2019-03-16T15:11:36.949Z,10.29
2019-03-16T15:14:03.628Z,10.25
2019-03-16T15:16:31.291Z,10.21
2019-03-16T15:18:57.996Z,10.21
2019-03-16T15:21:24.887Z,10.21
2019-03-16T15:23:51.434Z,10.18
2019-03-16T15:26:18.031Z,10.17
2019-03-16T15:28:44.602Z,10.18
2019-03-16T15:31:11.133Z,10.19
2019-03-16T15:33:37.642Z,10.16
2019-03-16T15:36:04.280Z,10.14
2019-03-16T15:38:31.043Z,10.16
2019-03-16T15:40:58.075Z,10.18
2019-03-16T15:43:25.003Z,10.14
2019-03-16T15:49:31.230Z,10.16
2019-03-16T15:52:44.519Z,10.19
2019-03-16T15:55:11.543Z,10.25
2019-03-16T15:57:38.534Z,10.28
2019-03-16T16:01:03.940Z,10.26
2019-03-16T16:03:28.576Z,10.23
2019-03-16T16:05:56.763Z,10.14
2019-03-16T16:12:03.405Z,10.09
2019-03-16T16:18:11.498Z,10.00
2019-03-16T16:21:25.243Z,9.98
2019-03-16T16:27:31.999Z,9.94
2019-03-16T16:29:58.537Z,9.91
2019-03-16T16:32:25.097Z,9.93
2019-03-16T16:34:51.939Z,9.89
2019-03-16T16:37:32.600Z,9.87
2019-03-16T16:39:59.299Z,9.86
2019-03-16T16:42:25.993Z,9.84
2019-03-16T16:44:52.589Z,9.85
2019-03-16T16:47:19.272Z,9.84
2019-03-16T16:49:45.834Z,9.80
2019-03-16T16:52:28.001Z,9.77
2019-03-16T16:58:34.435Z,9.74
2019-03-16T17:01:55.711Z,9.69
2019-03-16T17:04:22.319Z,9.64
2019-03-16T17:06:48.883Z,9.59
2019-03-16T17:09:15.415Z,9.57
2019-03-16T17:11:42.101Z,9.53
2019-03-16T17:14:08.669Z,9.50
2019-03-16T17:17:34.767Z,9.46
2019-03-16T17:19:52.545Z,9.43
2019-03-16T17:22:25.035Z,9.38
2019-03-16T17:24:51.538Z,9.37
2019-03-16T17:27:18.544Z,9.38
2019-03-16T17:29:45.114Z,9.34
2019-03-16T17:32:19.379Z,9.27
2019-03-16T17:34:45.930Z,9.24
2019-03-16T17:37:12.593Z,9.21
2019-03-16T17:39:39.138Z,9.21
2019-03-16T17:42:18.650Z,9.22
2019-03-16T17:44:45.257Z,9.19
2019-03-16T17:47:12.088Z,9.18
2019-03-16T17:49:38.765Z,9.17
2019-03-16T17:52:05.795Z,9.11
2019-03-16T17:54:32.314Z,9.08
2019-03-16T17:56:58.847Z,9.05
2019-03-16T18:03:05.562Z,9.02
2019-03-16T18:05:32.286Z,9.01
2019-03-16T18:07:59.048Z,8.99
2019-03-16T18:11:20.542Z,9.01
2019-03-16T18:17:26.602Z,8.88
2019-03-16T18:19:53.090Z,8.81
2019-03-16T18:22:19.598Z,8.79
2019-03-16T18:24:46.401Z,8.78
2019-03-16T18:27:13.276Z,8.71
2019-03-16T18:30:35.099Z,8.78
2019-03-16T18:33:02.470Z,8.75
2019-03-16T18:35:29.146Z,8.73
2019-03-16T18:41:35.297Z,8.73
2019-03-16T18:44:57.019Z,8.74
2019-03-16T18:47:37.492Z,8.75
2019-03-16T18:50:10.839Z,8.71
2019-03-16T18:56:17.493Z,8.76
2019-03-16T18:58:44.053Z,8.64
2019-03-16T19:01:10.550Z,8.55
2019-03-16T19:04:32.102Z,8.58
2019-03-16T19:07:30.751Z,8.56
2019-03-16T19:09:57.338Z,8.54
2019-03-16T19:12:23.903Z,8.52
2019-03-16T19:18:30.631Z,8.56
2019-03-16T19:20:57.545Z,8.50
2019-03-16T19:23:24.057Z,8.51
2019-03-16T19:25:50.896Z,8.50
2019-03-16T19:31:57.489Z,8.41
2019-03-16T19:34:24.422Z,8.43
2019-03-16T19:36:51.056Z,8.44
2019-03-16T19:39:17.781Z,8.50
2019-03-16T19:41:44.420Z,8.56
2019-03-16T19:47:56.293Z,8.66
2019-03-16T19:50:23.004Z,8.68
2019-03-16T19:53:44.859Z,8.66
2019-03-16T19:56:11.381Z,8.59
2019-03-16T19:58:37.945Z,8.50
2019-03-16T20:01:06.766Z,8.49
2019-03-16T20:03:33.351Z,8.54
2019-03-16T20:06:00.161Z,8.56
2019-03-16T20:08:26.779Z,8.50
2019-03-16T20:11:05.650Z,8.47
2019-03-16T20:13:21.810Z,8.45
2019-03-16T20:19:27.969Z,8.36
2019-03-16T20:21:55.256Z,8.32
2019-03-16T20:28:02.184Z,8.28
2019-03-16T20:30:28.861Z,8.13
2019-03-16T20:36:36.098Z,8.11
2019-03-16T20:39:05.606Z,8.05
2019-03-16T20:41:36.286Z,7.97
2019-03-16T20:44:00.923Z,7.93
2019-03-16T20:46:27.515Z,7.89
2019-03-16T20:52:35.008Z,7.77
2019-03-16T20:55:02.147Z,7.70
2019-03-16T20:57:32.150Z,7.63
2019-03-16T20:59:59.077Z,7.56
2019-03-16T21:02:25.979Z,7.49
2019-03-16T21:04:52.646Z,7.47
2019-03-16T21:07:19.148Z,7.45
2019-03-16T21:10:41.285Z,7.40
2019-03-16T21:13:07.928Z,7.44
2019-03-16T21:15:34.622Z,7.37
2019-03-16T21:21:40.783Z,7.33
2019-03-16T21:27:47.311Z,7.41
2019-03-16T21:30:14.228Z,7.36
2019-03-16T21:32:40.728Z,7.35
2019-03-16T21:35:07.316Z,7.38
2019-03-16T21:37:33.818Z,7.30
2019-03-16T21:40:55.373Z,7.24
2019-03-16T21:43:21.901Z,7.36
2019-03-16T21:45:48.902Z,7.29
2019-03-16T21:51:55.383Z,7.30
2019-03-16T21:54:21.963Z,7.27
2019-03-16T21:56:48.478Z,7.21
2019-03-16T21:59:15.049Z,7.16
2019-03-16T22:01:41.550Z,7.08
2019-03-16T22:04:08.080Z,7.03
2019-03-16T22:06:36.671Z,7.01
2019-03-16T22:09:05.373Z,7.03
2019-03-16T22:11:32.124Z,7.13
2019-03-16T22:13:58.734Z,7.12
2019-03-16T22:16:25.264Z,7.19
2019-03-16T22:22:31.940Z,7.29
2019-03-16T22:24:58.461Z,7.30
2019-03-16T22:31:05.222Z,7.33
2019-03-16T22:33:31.757Z,7.33
2019-03-16T22:35:58.242Z,7.30
2019-03-16T22:38:25.133Z,7.31
2019-03-16T22:40:52.058Z,7.40
2019-03-16T22:43:18.646Z,7.41
2019-03-16T22:45:45.158Z,7.48
2019-03-16T22:48:11.798Z,7.47
2019-03-16T22:50:53.526Z,7.63
2019-03-16T22:53:20.363Z,7.65
2019-03-16T22:55:46.894Z,7.70
2019-03-16T22:59:08.880Z,7.68
2019-03-16T23:01:38.652Z,7.72
2019-03-16T23:04:07.310Z,7.66
2019-03-16T23:10:13.705Z,7.88
2019-03-16T23:12:40.399Z,7.81
2019-03-16T23:15:07.290Z,7.76
2019-03-16T23:17:33.770Z,7.68
2019-03-16T23:20:00.345Z,7.63
2019-03-16T23:22:27.202Z,7.73
2019-03-16T23:24:53.727Z,7.81
2019-03-16T23:27:20.643Z,7.84
2019-03-16T23:29:47.179Z,7.79
2019-03-16T23:33:09.096Z,7.73
2019-03-16T23:36:24.488Z,7.70
2019-03-16T23:38:51.006Z,7.55
2019-03-16T23:41:24.251Z,7.54
2019-03-16T23:43:51.167Z,7.50
2019-03-16T23:46:17.653Z,7.52
2019-03-16T23:49:39.661Z,7.53
2019-03-16T23:52:06.487Z,7.66
2019-03-16T23:54:33.140Z,7.69
2019-03-16T23:57:00.328Z,7.64
2019-03-16T23:59:27.235Z,7.49
